Weather at Locarno Airport

Public forecast

Using degrees Celsius for public forecast. Weather courtesy of forecast.io.

Current aviation weather report (METAR) for Locarno Airport

Retrieved 2021/11/29 18:20 UTC (10 minutes ago):

LSZL 291820Z AUTO 09009KT 060V120 9999NDV NCD 07/M15 Q1010 RMK

Closest aviation forecast (TAF) to Locarno Airport

Closest forecast is Malpensa International Airport, 32.4 nm (60.1 km) S. Retrieved 2021/11/29 18:00 UTC (30 minutes ago):

TAF LIMC 291700Z 2918/3024 01010KT 9999 FEW030 BECMG 3006/3009 VRB05KT BECMG 3017/3020 01010KT